Latest Coastal Weather Observations for Rosslyn Bay Harbour

IDQ60701

Issued at 4:51 am EST Monday 27 March 2017 (issued every 10 minutes, with the page automatically refreshed every 10 minutes)

About coastal observations | Map of coastal stations | Coastal observations for QLD | Marine services | Other Formats
Station Details ID: 033208 Name: ROSSLYN BAY NTC AWS Lat: -23.16 Lon: 150.79 Height: 0.0 m
Data from the previous 72 hours. | See also: Recent months for locations in Queensland
Date/Time
EST
Temp
°C
Wind Pressure Rain since
9am
mm
Weather Cloud Vis
km
Sea
Height
m
Swell
Dir  Spd
kts
Gust
kts
hPa Trend Height
m
Period
s
Dir
27/04:30am 27.5 S 13 20 1008.3 - - - - - - - - -
27/04:00am 27.6 S 14 21 1008.1 - - - - - - - - -
27/03:30am 27.4 S 12 21 1008.4 - - - - - - - - -
27/03:00am 27.3 S 12 21 1008.6 - - - - - - - - -
27/02:30am 27.1 SSW 11 20 1008.8 - - - - - - - - -
27/02:00am 27.3 S 13 23 1009.0 - - - - - - - - -
27/01:30am 26.8 S 10 18 1009.7 - - - - - - - - -
27/01:00am 26.2 S 11 22 1010.3 - - - - - - - - -
27/12:30am 25.9 S 13 26 1010.6 - - - - - - - - -
27/12:00am 25.6 S 14 25 1010.9 - - - - - - - - -
 
Date/Time
EST
Temp
°C
Wind Pressure Rain since
9am
mm
Weather Cloud Vis
km
Sea
Height
m
Swell
Dir  Spd
kts
Gust
kts
hPa Trend Height
m
Period
s
Dir
26/11:30pm 24.4 SSW 11 23 1010.7 - - - - - - - - -
26/11:00pm 26.4 S 12 26 1011.1 - - - - - - - - -
26/10:30pm 26.6 S 10 24 1011.4 - - - - - - - - -
26/10:00pm 27.1 S 14 22 1011.5 - - - - - - - - -
26/09:30pm 26.9 S 12 19 1011.4 - - - - - - - - -
26/09:20pm 26.0 S 15 26 1011.3 - - - - - - - - -
26/09:00pm 27.8 S 15 23 1011.5 - - - - - - - - -
26/08:30pm 27.7 S 14 24 1011.3 - - - - - - - - -
26/08:11pm 27.7 S 15 25 1010.9 - - - - - - - - -
26/08:00pm 27.7 S 15 24 1010.7 - - - - - - - - -
26/07:30pm 27.4 S 12 23 1010.3 - - - - - - - - -
26/07:00pm 27.4 S 15 25 1009.9 - - - - - - - - -
26/06:30pm 27.4 S 12 25 1009.9 - - - - - - - - -
26/06:16pm 27.4 S 15 29 1009.8 - - - - - - - - -
26/06:00pm 27.4 S 13 24 1009.7 - - - - - - - - -
26/05:30pm 27.5 S 14 29 1009.4 - - - - - - - - -
26/05:04pm 27.6 S 15 27 1009.0 - - - - - - - - -
26/05:00pm 27.5 S 14 26 1009.0 - - - - - - - - -
26/04:49pm 27.6 S 15 30 1008.9 - - - - - - - - -
26/04:30pm 27.6 S 12 27 1008.7 - - - - - - - - -
26/04:00pm 27.7 S 14 23 1008.7 - - - - - - - - -
26/03:30pm 27.8 S 12 23 1008.9 - - - - - - - - -
26/03:00pm 27.7 S 11 24 1008.9 - - - - - - - - -
26/02:30pm 27.8 S 12 27 1008.9 - - - - - - - - -
26/02:00pm 28.0 S 12 23 1009.2 - - - - - - - - -
26/01:30pm 27.8 S 11 20 1009.4 - - - - - - - - -
26/01:00pm 27.5 S 13 23 1009.7 - - - - - - - - -
26/12:30pm 27.6 S 12 21 1010.1 - - - - - - - - -
26/12:00pm 27.4 S 12 22 1010.3 - - - - - - - - -
26/11:30am 27.6 S 13 22 1010.9 - - - - - - - - -
26/11:00am 27.5 S 12 20 1011.2 - - - - - - - - -
26/10:30am 27.2 S 12 21 1011.6 - - - - - - - - -
26/10:00am 27.9 S 11 20 1011.6 - - - - - - - - -
26/09:30am 27.1 S 11 19 1011.6 - - - - - - - - -
26/09:00am 26.5 S 10 20 1012.0 - - - - - - - - -
26/08:30am 26.0 SSE 9 19 1011.8 - - - - - - - - -
26/08:00am 25.9 S 7 18 1011.7 - - - - - - - - -
26/07:30am 25.9 S 7 14 1011.3 - - - - - - - - -
26/07:00am 25.5 S 7 14 1011.0 - - - - - - - - -
26/06:30am 25.6 S 6 14 1010.7 - - - - - - - - -
26/06:00am 25.8 S 10 19 1010.6 - - - - - - - - -
26/05:30am 25.6 S 7 13 1010.3 - - - - - - - - -
26/05:00am 25.7 S 9 18 1009.9 - - - - - - - - -
26/04:30am 26.1 S 11 18 1009.7 - - - - - - - - -
26/04:00am 25.3 S 8 18 1009.4 - - - - - - - - -
26/03:30am 24.9 S 8 15 1009.4 - - - - - - - - -
26/03:00am 25.4 S 7 17 1009.5 - - - - - - - - -
26/02:30am 25.6 S 9 16 1009.8 - - - - - - - - -
26/02:00am 25.7 S 10 19 1010.2 - - - - - - - - -
26/01:30am 25.9 S 13 25 1010.8 - - - - - - - - -
26/01:00am 25.4 S 11 20 1011.2 - - - - - - - - -
26/12:30am 25.2 S 10 21 1011.5 - - - - - - - - -
26/12:00am 26.1 S 10 20 1011.7 - - - - - - - - -
 
Date/Time
EST
Temp
°C
Wind Pressure Rain since
9am
mm
Weather Cloud Vis
km
Sea
Height
m
Swell
Dir  Spd
kts
Gust
kts
hPa Trend Height
m
Period
s
Dir
25/11:30pm 26.7 S 12 19 1012.1 - - - - - - - - -
25/11:00pm 26.6 S 11 21 1012.3 - - - - - - - - -
25/10:30pm 27.5 S 12 22 1012.2 - - - - - - - - -
25/10:00pm 27.4 S 11 21 1012.3 - - - - - - - - -
25/09:30pm 27.5 S 11 19 1012.2 - - - - - - - - -
25/09:00pm 27.5 S 12 20 1012.3 - - - - - - - - -
25/08:30pm 27.5 S 12 20 1012.1 - - - - - - - - -
25/08:00pm 27.5 S 12 18 1011.8 - - - - - - - - -
25/07:30pm 27.4 S 12 19 1011.6 - - - - - - - - -
25/07:00pm 27.4 S 12 19 1011.2 - - - - - - - - -
25/06:30pm 27.5 S 13 20 1011.0 - - - - - - - - -
25/06:00pm 27.4 S 12 21 1010.9 - - - - - - - - -
25/05:30pm 27.4 S 11 17 1010.8 - - - - - - - - -
25/05:00pm 27.4 S 12 18 1010.4 - - - - - - - - -
25/04:30pm 28.0 S 12 18 1010.1 - - - - - - - - -
25/04:00pm 28.0 S 11 17 1010.2 - - - - - - - - -
25/03:30pm 27.9 S 11 16 1010.2 - - - - - - - - -
25/03:00pm 27.9 S 11 16 1010.4 - - - - - - - - -
25/02:30pm 27.9 S 11 17 1010.4 - - - - - - - - -
25/02:00pm 27.7 S 11 18 1010.6 - - - - - - - - -
25/01:30pm 27.7 S 10 17 1010.9 - - - - - - - - -
25/01:00pm 27.6 S 10 17 1011.3 - - - - - - - - -
25/12:30pm 27.4 S 10 17 1011.7 - - - - - - - - -
25/12:00pm 27.4 S 10 17 1012.1 - - - - - - - - -
25/11:30am 27.3 S 11 19 1012.5 - - - - - - - - -
25/11:00am 27.1 S 10 18 1012.9 - - - - - - - - -
25/10:30am 27.0 S 10 17 1012.9 - - - - - - - - -
25/10:00am 26.9 S 10 19 1012.9 - - - - - - - - -
25/09:30am 26.9 S 10 17 1012.9 - - - - - - - - -
25/09:00am 26.7 S 6 11 1012.7 - - - - - - - - -
25/08:30am 27.5 S 12 19 1012.6 - - - - - - - - -
25/08:00am 27.3 S 11 17 1012.3 - - - - - - - - -
25/07:30am 27.2 S 11 17 1011.8 - - - - - - - - -
25/07:00am 27.1 S 11 18 1011.4 - - - - - - - - -
25/06:30am 27.1 S 12 19 1011.2 - - - - - - - - -
25/06:00am 27.0 S 12 19 1011.0 - - - - - - - - -
25/05:30am 27.1 S 13 18 1010.7 - - - - - - - - -
25/05:00am 27.0 S 11 18 1010.5 - - - - - - - - -
25/04:30am 27.1 S 11 17 1010.4 - - - - - - - - -
25/04:00am 27.2 S 11 16 1010.5 - - - - - - - - -
25/03:30am 27.2 S 11 18 1010.4 - - - - - - - - -
25/03:00am 27.2 S 10 16 1010.3 - - - - - - - - -
25/02:30am 27.3 S 9 15 1010.5 - - - - - - - - -
25/02:00am 27.4 S 10 15 1010.9 - - - - - - - - -
25/01:30am 27.4 S 9 13 1011.1 - - - - - - - - -
25/01:00am 27.4 S 9 14 1011.3 - - - - - - - - -
25/12:30am 27.5 S 7 13 1011.7 - - - - - - - - -
25/12:00am 27.6 S 8 12 1011.9 - - - - - - - - -
 
Date/Time
EST
Temp
°C
Wind Pressure Rain since
9am
mm
Weather Cloud Vis
km
Sea
Height
m
Swell
Dir  Spd
kts
Gust
kts
hPa Trend Height
m
Period
s
Dir
24/11:30pm 27.7 S 5 11 1012.0 - - - - - - - - -
24/11:00pm 27.8 S 7 11 1012.3 - - - - - - - - -
24/10:30pm 27.8 S 7 11 1012.4 - - - - - - - - -
24/10:00pm 27.7 S 4 10 1012.4 - - - - - - - - -
24/09:30pm 27.6 S 6 12 1012.4 - - - - - - - - -
24/09:00pm 27.7 S 4 11 1012.4 - - - - - - - - -
24/08:30pm 27.6 S 7 10 1012.3 - - - - - - - - -
24/08:00pm 27.7 S 5 11 1011.9 - - - - - - - - -
24/07:30pm 27.6 S 6 10 1011.7 - - - - - - - - -
24/07:00pm 27.6 S 6 10 1011.7 - - - - - - - - -
24/06:30pm 27.7 S 5 9 1011.4 - - - - - - - - -
24/06:00pm 27.8 S 5 9 1011.2 - - - - - - - - -
24/05:30pm 27.8 S 4 9 1011.0 - - - - - - - - -
24/05:00pm 28.0 S 6 10 1010.7 - - - - - - - - -
24/04:30pm 28.4 S 6 11 1010.5 - - - - - - - - -
24/04:00pm 28.5 S 4 9 1010.4 - - - - - - - - -
24/03:30pm 28.3 S 6 10 1010.4 - - - - - - - - -
24/03:00pm 28.6 S 6 12 1010.5 - - - - - - - - -
24/02:30pm 28.3 S 8 12 1010.8 - - - - - - - - -
24/02:00pm 28.3 S 9 12 1011.0 - - - - - - - - -
24/01:30pm 28.2 S 8 12 1011.3 - - - - - - - - -
24/01:00pm 28.4 S 8 12 1011.7 - - - - - - - - -
24/12:30pm 28.0 S 8 12 1012.2 - - - - - - - - -
24/12:00pm 28.0 S 6 12 1012.6 - - - - - - - - -
24/11:30am 27.2 S 8 12 1013.0 - - - - - - - - -
24/11:00am 27.6 S 7 11 1013.6 - - - - - - - - -
24/10:30am 27.8 S 8 11 1013.7 - - - - - - - - -
24/10:00am 27.9 S 4 9 1013.9 - - - - - - - - -
24/09:30am 26.6 S 7 12 1013.8 - - - - - - - - -
24/09:00am 26.4 S 5 11 1013.8 - - - - - - - - -
24/08:30am 26.3 S 5 12 1013.5 - - - - - - - - -
24/08:00am 26.2 S 4 10 1013.3 - - - - - - - - -
24/07:30am 25.7 S 4 8 1012.9 - - - - - - - - -
24/07:00am 25.2 SSW 4 7 1012.5 - - - - - - - - -
24/06:30am 25.3 S 3 7 1012.3 - - - - - - - - -
24/06:00am 25.1 SSW 2 5 1012.1 - - - - - - - - -
24/05:30am 25.7 S 3 7 1011.8 - - - - - - - - -
24/05:00am 25.8 S 3 8 1011.6 - - - - - - - - -

Other Formats:

Comma delimited format used in spreadsheet applications
http://www.bom.gov.au/fwo/IDQ60701/IDQ60701.95298.axf

JavaScript Object Notation format (JSON) in row-major order
http://www.bom.gov.au/fwo/IDQ60701/IDQ60701.95298.json